Briefing drone pour Talant

Rechercher une autre localisation

Conditions de vol :


Nous sommes le : Jeudi 30 juin 2022
Il est 19:27 UTC (21:27 LT)

Lever de soleil : 03:21 UTC (05:21 LT)
Coucher de soleil : 20:06 UTC (22:06 LT)

Météo

L'essentiel des conditions de vol

VIGILANCE MÉTÉO FRANCE - Côte-dOr (21)
Vigilance Jaune : Orages
METAR de LFSD
LFSD 301900Z AUTO 14006KT 6000 RA FEW005/// BKN017/// BKN024/// ///CB 14/13 Q1018

Date d'émission: 30/06/2022
Heure d'émission: 19:00 UTC
Vent: 140° pour 6 KT (11 km/h)
Visibilité horizontale: 6000 m
Plafond :
- Peu de nuages à 500ft (152m)
- Nuages morcelés à 1700ft (518m)
- Nuages morcelés à 2400ft (732m)
Température: 14 °C
Point de rosée: 13 °C
Humidité: 94%
Pression (QNH): 1018 hPa
Conditions: Pluie
TAF de LFSD
LFSD 010600Z 0100/0124 CNL

Conditions prévues :

Heure d'émission : Bulletin éffectué le 01 à 00:00 UTC
Prévision : Valide du 01 a 00:00 UTC au 01 a 23:59 UTC
Nuages : à 0ft (0 m)
WEBCAM POUR TALANT

Réglementation

Voler en sécurité

CARTES AERONAUTIQUE 1/500.000
CARTES VAC (LFSD)
SUP AIP




Chargement des AIP...
NOTAM (TALANT + Terrain à proximité / FIR )




Chargement des NOTAMS...
CONTACT PREFECTURE 21
Côte-dOr (21) : pref-drone@cote-dor.gouv.fr


Avertissement : Les données mises à disposition sont indicatives. Oxygène Drone ne pourra être tenu responsable de dégâts causés aux biens et aux personnes.